createdAt,value
2022-11-16T00:02:21.834Z,93.05
2022-11-16T00:04:48.354Z,99.19
2022-11-16T00:07:14.871Z,100.00
2022-11-16T00:09:41.370Z,100.00
2022-11-16T00:12:07.863Z,100.00
2022-11-16T00:14:35.870Z,100.00
2022-11-16T00:17:03.663Z,100.00
2022-11-16T00:19:30.407Z,100.00
2022-11-16T00:21:56.912Z,100.00
2022-11-16T00:24:23.934Z,99.62
2022-11-16T00:26:53.768Z,97.39
2022-11-16T00:29:24.915Z,95.57
2022-11-16T00:31:52.667Z,95.10
2022-11-16T00:34:19.930Z,95.00
2022-11-16T00:36:47.014Z,94.80
2022-11-16T00:39:15.005Z,93.02
2022-11-16T00:41:42.360Z,92.58
2022-11-16T00:44:09.689Z,90.96
2022-11-16T00:46:36.153Z,89.04
2022-11-16T00:49:03.983Z,88.36
2022-11-16T00:51:30.431Z,89.78
2022-11-16T00:53:56.972Z,87.57
2022-11-16T00:56:23.744Z,87.49
2022-11-16T00:58:50.305Z,86.92
2022-11-16T01:01:17.182Z,86.02
2022-11-16T01:03:43.722Z,85.75
2022-11-16T01:06:15.053Z,84.44
2022-11-16T01:08:43.009Z,84.71
2022-11-16T01:11:13.830Z,84.11
2022-11-16T01:13:40.288Z,83.57
2022-11-16T01:16:06.859Z,85.01
2022-11-16T01:18:33.543Z,85.89
2022-11-16T01:21:00.224Z,85.86
2022-11-16T01:23:26.669Z,90.57
2022-11-16T01:25:57.647Z,91.87
2022-11-16T01:28:24.082Z,90.77
2022-11-16T01:30:50.546Z,90.53
2022-11-16T01:33:17.049Z,90.15
2022-11-16T01:35:43.919Z,90.33
2022-11-16T01:38:10.379Z,88.08
2022-11-16T01:40:38.004Z,86.63
2022-11-16T01:43:16.812Z,88.10
2022-11-16T01:45:44.586Z,87.52
2022-11-16T01:48:16.058Z,87.03
2022-11-16T01:50:44.625Z,85.53
2022-11-16T01:53:13.355Z,84.18
2022-11-16T01:55:43.167Z,84.66
2022-11-16T01:58:17.463Z,85.28
2022-11-16T02:00:43.985Z,84.97
2022-11-16T02:03:10.571Z,84.52
2022-11-16T02:06:00.826Z,84.96
2022-11-16T02:08:39.485Z,85.35
2022-11-16T02:11:40.318Z,86.36
2022-11-16T02:14:29.540Z,87.41
2022-11-16T02:17:12.071Z,87.42
2022-11-16T02:19:41.270Z,87.20
2022-11-16T02:22:49.013Z,87.55
2022-11-16T02:25:49.962Z,87.60
2022-11-16T02:28:32.953Z,88.96
2022-11-16T02:31:05.399Z,89.67
2022-11-16T02:33:38.914Z,88.16
2022-11-16T02:36:11.923Z,88.46
2022-11-16T02:38:45.036Z,87.76
2022-11-16T02:41:19.717Z,86.53
2022-11-16T02:43:55.276Z,86.05
2022-11-16T02:46:30.803Z,85.59
2022-11-16T02:49:02.918Z,84.03
2022-11-16T02:51:31.080Z,84.40
2022-11-16T02:54:23.860Z,83.72
2022-11-16T02:56:50.243Z,83.67
2022-11-16T02:59:17.867Z,83.82
2022-11-16T03:01:59.531Z,84.08
2022-11-16T03:04:37.584Z,82.26
2022-11-16T03:07:08.813Z,83.53
2022-11-16T03:09:38.677Z,83.10
2022-11-16T03:12:11.371Z,83.99
2022-11-16T03:14:49.763Z,83.91
2022-11-16T03:17:25.635Z,85.05
2022-11-16T03:20:01.413Z,84.08
2022-11-16T03:22:39.541Z,82.74
2022-11-16T03:25:08.641Z,82.20
2022-11-16T03:27:54.729Z,81.48
2022-11-16T03:30:24.717Z,82.07
2022-11-16T03:32:54.842Z,81.82
2022-11-16T03:35:49.938Z,82.98
2022-11-16T03:38:19.937Z,82.71
2022-11-16T03:40:47.968Z,81.94
2022-11-16T03:43:18.025Z,82.46
2022-11-16T03:45:46.576Z,82.09
2022-11-16T03:48:13.324Z,81.75
2022-11-16T03:50:42.537Z,81.13
2022-11-16T03:53:09.769Z,83.43
2022-11-16T03:55:36.227Z,83.27
2022-11-16T03:58:02.722Z,83.70
2022-11-16T04:00:29.213Z,84.21
2022-11-16T04:02:55.942Z,83.70
2022-11-16T04:05:23.116Z,83.11
2022-11-16T04:07:49.572Z,84.71
2022-11-16T04:10:16.040Z,84.83
2022-11-16T04:13:03.811Z,84.46
2022-11-16T04:15:30.281Z,83.55
2022-11-16T04:17:56.722Z,84.29
2022-11-16T04:20:23.182Z,84.07
2022-11-16T04:22:57.810Z,83.15
2022-11-16T04:25:30.564Z,83.54
2022-11-16T04:27:58.167Z,84.49
2022-11-16T04:30:24.800Z,84.82
2022-11-16T04:32:51.360Z,84.74
2022-11-16T04:35:17.866Z,82.83
2022-11-16T04:37:44.305Z,82.43
2022-11-16T04:40:11.321Z,84.64
2022-11-16T04:42:37.771Z,84.39
2022-11-16T04:45:04.845Z,84.87
2022-11-16T04:47:31.415Z,85.42
2022-11-16T04:49:57.885Z,86.06
2022-11-16T04:52:24.610Z,85.70
2022-11-16T04:54:51.647Z,85.53
2022-11-16T04:57:18.125Z,85.33
2022-11-16T04:59:44.572Z,85.14
2022-11-16T05:02:11.058Z,84.36
2022-11-16T05:04:40.017Z,84.70
2022-11-16T05:07:07.791Z,83.74
2022-11-16T05:09:34.248Z,85.42
2022-11-16T05:12:00.681Z,84.59
2022-11-16T05:14:27.173Z,84.39
2022-11-16T05:16:53.629Z,84.33
2022-11-16T05:19:20.088Z,84.29
2022-11-16T05:21:46.906Z,85.15
2022-11-16T05:24:13.418Z,84.77
2022-11-16T05:26:39.884Z,84.60
2022-11-16T05:29:06.333Z,84.27
2022-11-16T05:31:37.583Z,85.96
2022-11-16T05:34:06.766Z,87.72
2022-11-16T05:36:33.201Z,86.27
2022-11-16T05:38:59.688Z,85.21
2022-11-16T05:41:26.219Z,84.65
2022-11-16T05:43:54.195Z,84.09
2022-11-16T05:46:20.741Z,84.13
2022-11-16T05:48:47.409Z,83.99
2022-11-16T05:51:13.965Z,84.75
2022-11-16T05:53:40.803Z,84.62
2022-11-16T05:56:07.805Z,85.49
2022-11-16T05:58:34.593Z,85.11
2022-11-16T06:01:01.369Z,84.94
2022-11-16T06:03:29.888Z,84.53
2022-11-16T06:05:57.119Z,84.48
2022-11-16T06:08:23.848Z,84.50
2022-11-16T06:10:50.427Z,84.37
2022-11-16T06:13:16.879Z,83.95
2022-11-16T06:18:24.185Z,83.74
2022-11-16T06:20:50.756Z,84.18
2022-11-16T06:23:17.453Z,83.74
2022-11-16T06:25:43.950Z,83.57
2022-11-16T06:28:11.188Z,84.35
2022-11-16T06:30:39.138Z,85.42
2022-11-16T06:33:06.131Z,84.70
2022-11-16T06:35:33.136Z,83.92
2022-11-16T06:37:59.602Z,83.17
2022-11-16T06:40:26.101Z,84.51
2022-11-16T06:42:52.561Z,82.66
2022-11-16T06:45:19.092Z,84.65
2022-11-16T06:47:45.537Z,84.84
2022-11-16T06:50:12.014Z,84.88
2022-11-16T06:52:38.465Z,84.24
2022-11-16T06:55:05.293Z,85.55
2022-11-16T06:57:32.846Z,85.67
2022-11-16T06:59:59.308Z,84.37
2022-11-16T07:02:25.846Z,83.70
2022-11-16T07:04:52.295Z,82.80
2022-11-16T07:07:18.792Z,81.58
2022-11-16T07:09:45.287Z,82.19
2022-11-16T07:12:11.748Z,80.54
2022-11-16T07:14:38.214Z,80.37
2022-11-16T07:17:09.249Z,79.83
2022-11-16T07:19:36.246Z,78.73
2022-11-16T07:22:02.718Z,77.98
2022-11-16T07:24:29.169Z,77.63
2022-11-16T07:26:55.644Z,77.40
2022-11-16T07:29:22.096Z,76.74
2022-11-16T07:31:48.528Z,76.80
2022-11-16T07:34:14.969Z,76.86
2022-11-16T07:36:41.502Z,76.56
2022-11-16T07:39:08.134Z,76.90
2022-11-16T07:41:35.018Z,76.50
2022-11-16T07:44:01.505Z,76.73
2022-11-16T07:46:45.817Z,76.50
2022-11-16T07:49:15.215Z,77.43
2022-11-16T07:51:41.959Z,78.48
2022-11-16T07:54:11.900Z,77.81
2022-11-16T07:56:38.400Z,80.51
2022-11-16T07:59:05.000Z,79.32
2022-11-16T08:01:31.467Z,78.70
2022-11-16T08:03:57.952Z,78.91
2022-11-16T08:06:27.532Z,79.77
2022-11-16T08:08:58.279Z,77.66
2022-11-16T08:11:25.949Z,76.51
2022-11-16T08:13:52.428Z,76.30
2022-11-16T08:16:22.006Z,76.46
2022-11-16T08:18:48.724Z,75.28
2022-11-16T08:21:17.669Z,75.60
2022-11-16T08:23:44.642Z,73.68
2022-11-16T08:26:14.720Z,73.59
2022-11-16T08:28:42.410Z,72.60
2022-11-16T08:31:14.339Z,72.26
2022-11-16T08:33:41.275Z,75.11
2022-11-16T08:36:13.994Z,76.73
2022-11-16T08:38:41.068Z,75.92
2022-11-16T08:41:07.702Z,76.10
2022-11-16T08:43:34.751Z,75.96
2022-11-16T08:46:01.299Z,75.12
2022-11-16T08:48:27.868Z,73.74
2022-11-16T08:51:16.387Z,73.47
2022-11-16T08:53:40.749Z,74.81
2022-11-16T08:56:11.800Z,74.51
2022-11-16T08:58:39.196Z,74.36
2022-11-16T09:01:11.072Z,73.35
2022-11-16T09:03:38.436Z,71.90
2022-11-16T09:06:06.920Z,71.48
2022-11-16T09:08:33.902Z,69.56
2022-11-16T09:11:04.525Z,69.78
2022-11-16T09:13:31.081Z,66.99
2022-11-16T09:15:59.124Z,67.57
2022-11-16T09:18:27.213Z,67.22
2022-11-16T09:20:54.619Z,65.16
2022-11-16T09:23:25.298Z,66.53
2022-11-16T09:25:52.836Z,67.91
2022-11-16T09:28:22.121Z,67.80
2022-11-16T09:30:50.945Z,69.62
2022-11-16T09:33:18.135Z,68.85
2022-11-16T09:35:44.801Z,67.70
2022-11-16T09:38:13.640Z,69.08
2022-11-16T09:40:47.203Z,68.35
2022-11-16T09:43:27.498Z,68.91
2022-11-16T09:46:16.112Z,67.10
2022-11-16T09:48:43.293Z,65.90
2022-11-16T09:51:15.104Z,64.84
2022-11-16T09:53:54.000Z,64.73
2022-11-16T09:56:23.532Z,64.71
2022-11-16T09:59:00.889Z,64.46
2022-11-16T10:01:55.188Z,62.79
2022-11-16T10:04:43.380Z,62.13
2022-11-16T10:07:19.817Z,61.39
2022-11-16T10:09:47.347Z,61.90
2022-11-16T10:12:19.815Z,62.16
2022-11-16T10:15:01.637Z,60.97
2022-11-16T10:17:50.764Z,60.71
2022-11-16T10:20:49.531Z,60.74
2022-11-16T10:23:25.544Z,61.94
2022-11-16T10:26:01.369Z,61.96
2022-11-16T10:28:48.181Z,63.97
2022-11-16T10:31:20.691Z,63.31
2022-11-16T10:33:53.742Z,63.91
2022-11-16T10:36:24.937Z,64.85
2022-11-16T10:38:51.619Z,63.24
2022-11-16T10:41:29.638Z,63.62
2022-11-16T10:43:58.980Z,64.73
2022-11-16T10:46:35.455Z,64.29
2022-11-16T10:49:12.325Z,63.58
2022-11-16T10:51:38.903Z,63.00
2022-11-16T10:54:13.120Z,64.87
2022-11-16T10:56:44.020Z,63.85
2022-11-16T10:59:12.968Z,64.17
2022-11-16T11:01:47.171Z,64.25
2022-11-16T11:04:15.852Z,63.37
2022-11-16T11:06:43.381Z,64.51
2022-11-16T11:09:30.795Z,64.71
2022-11-16T11:12:21.603Z,63.57
2022-11-16T11:14:59.985Z,64.49
2022-11-16T11:17:27.470Z,64.10
2022-11-16T11:19:58.971Z,63.62
2022-11-16T11:22:26.444Z,63.95
2022-11-16T11:24:53.881Z,64.69
2022-11-16T11:27:32.750Z,65.61
2022-11-16T11:30:00.198Z,66.33
2022-11-16T11:32:39.971Z,65.71
2022-11-16T11:35:21.663Z,66.19
2022-11-16T11:37:54.481Z,66.59
2022-11-16T11:40:25.358Z,66.56
2022-11-16T11:42:58.554Z,66.08
2022-11-16T11:45:34.205Z,66.37
2022-11-16T11:48:16.246Z,66.28
2022-11-16T11:50:54.148Z,66.12
2022-11-16T11:53:39.350Z,64.92
2022-11-16T11:56:06.310Z,65.75
2022-11-16T11:58:38.461Z,65.55
2022-11-16T12:01:45.129Z,65.24
2022-11-16T12:04:48.980Z,66.00
2022-11-16T12:07:36.918Z,65.91
2022-11-16T12:10:30.664Z,64.39
2022-11-16T12:13:19.705Z,66.16
2022-11-16T12:15:57.543Z,65.67
2022-11-16T12:18:35.879Z,64.94
2022-11-16T12:21:12.658Z,63.48
2022-11-16T12:24:05.834Z,65.36
2022-11-16T12:26:52.482Z,64.05
2022-11-16T12:29:30.528Z,63.31
2022-11-16T12:32:36.754Z,63.45
2022-11-16T12:35:14.922Z,62.34
2022-11-16T12:37:54.875Z,62.71
2022-11-16T12:40:58.455Z,62.13
2022-11-16T12:43:51.204Z,59.59
2022-11-16T12:46:26.405Z,60.00
2022-11-16T12:49:12.862Z,59.21
2022-11-16T12:52:02.543Z,59.22
2022-11-16T12:55:04.318Z,58.19
2022-11-16T12:57:36.869Z,57.99
2022-11-16T13:00:14.361Z,55.74
2022-11-16T13:03:05.072Z,55.56
2022-11-16T13:06:04.487Z,54.30
2022-11-16T13:08:40.703Z,53.77
2022-11-16T13:11:23.652Z,52.71
2022-11-16T13:13:57.975Z,53.79
2022-11-16T13:16:25.044Z,53.55
2022-11-16T13:18:53.699Z,53.58
2022-11-16T13:21:51.129Z,53.02
2022-11-16T13:24:46.629Z,53.92
2022-11-16T13:27:19.256Z,53.33
2022-11-16T13:30:25.952Z,53.45
2022-11-16T13:33:12.435Z,52.10
2022-11-16T13:35:39.338Z,51.65
2022-11-16T13:38:12.414Z,51.99
2022-11-16T13:40:39.762Z,50.89
2022-11-16T13:43:11.911Z,50.40
2022-11-16T13:45:44.355Z,48.49
2022-11-16T13:48:32.798Z,48.01
2022-11-16T13:51:22.294Z,48.22
2022-11-16T13:54:43.218Z,47.99
2022-11-16T13:56:49.751Z,47.29
2022-11-16T13:59:24.843Z,46.75
2022-11-16T14:02:00.329Z,46.92
2022-11-16T14:04:39.030Z,47.62
2022-11-16T14:07:41.534Z,47.43
2022-11-16T14:10:08.925Z,47.66
2022-11-16T14:12:38.118Z,47.92
2022-11-16T14:15:15.759Z,45.83
2022-11-16T14:17:56.359Z,45.55
2022-11-16T14:20:32.451Z,44.97
2022-11-16T14:23:20.505Z,43.97
2022-11-16T14:25:53.900Z,43.07
2022-11-16T14:28:32.206Z,42.62
2022-11-16T14:31:21.061Z,42.19
2022-11-16T14:33:54.983Z,42.46
2022-11-16T14:36:38.785Z,42.24
2022-11-16T14:39:34.582Z,42.42
2022-11-16T14:42:18.300Z,43.72
2022-11-16T14:44:45.183Z,45.15
2022-11-16T14:47:26.796Z,46.16
2022-11-16T14:49:54.854Z,46.48
2022-11-16T14:52:38.190Z,47.04
2022-11-16T14:55:10.270Z,47.66
2022-11-16T14:57:36.707Z,46.40
2022-11-16T15:00:19.034Z,47.43
2022-11-16T15:02:51.870Z,48.37
2022-11-16T15:05:22.665Z,49.09
2022-11-16T15:07:52.976Z,49.70
2022-11-16T15:10:25.426Z,50.94
2022-11-16T15:12:54.790Z,51.64
2022-11-16T15:15:31.509Z,52.41
2022-11-16T15:18:07.978Z,54.44
2022-11-16T15:20:37.783Z,52.99
2022-11-16T15:23:12.986Z,52.19
2022-11-16T15:25:52.903Z,51.73
2022-11-16T15:28:30.422Z,50.81
2022-11-16T15:31:00.375Z,51.28
2022-11-16T15:33:29.582Z,49.65
2022-11-16T15:35:58.119Z,49.25
2022-11-16T15:38:32.743Z,48.21
2022-11-16T15:41:02.739Z,48.39
2022-11-16T15:43:45.164Z,49.74
2022-11-16T15:46:24.745Z,50.20
2022-11-16T15:48:52.849Z,50.27
2022-11-16T15:51:22.608Z,51.33
2022-11-16T15:53:51.694Z,52.32
2022-11-16T15:56:28.713Z,52.74
2022-11-16T15:58:58.722Z,53.05
2022-11-16T16:01:25.852Z,54.23
2022-11-16T16:04:07.112Z,54.69
2022-11-16T16:06:47.236Z,55.43
2022-11-16T16:09:42.864Z,56.45
2022-11-16T16:12:18.790Z,56.48
2022-11-16T16:14:46.945Z,57.29
2022-11-16T16:17:26.815Z,56.72
2022-11-16T16:19:58.912Z,56.86
2022-11-16T16:22:25.345Z,57.38
2022-11-16T16:24:52.351Z,58.74
2022-11-16T16:27:24.858Z,59.27
2022-11-16T16:29:55.954Z,58.51
2022-11-16T16:32:28.465Z,59.08
2022-11-16T16:34:57.796Z,59.49
2022-11-16T16:37:27.236Z,60.05
2022-11-16T16:39:53.681Z,62.40
2022-11-16T16:42:20.169Z,62.04
2022-11-16T16:44:47.614Z,61.88
2022-11-16T16:47:16.069Z,62.75
2022-11-16T16:49:42.643Z,62.50
2022-11-16T16:52:12.429Z,62.68
2022-11-16T16:54:40.110Z,63.03
2022-11-16T16:57:11.587Z,63.73
2022-11-16T16:59:38.076Z,63.40
2022-11-16T17:02:04.505Z,64.49
2022-11-16T17:04:32.548Z,64.86
2022-11-16T17:06:59.038Z,64.66
2022-11-16T17:09:25.510Z,65.20
2022-11-16T17:11:51.966Z,65.08
2022-11-16T17:14:18.459Z,65.34
2022-11-16T17:16:44.939Z,65.62
2022-11-16T17:19:11.443Z,65.61
2022-11-16T17:21:37.894Z,64.99
2022-11-16T17:24:04.887Z,65.18
2022-11-16T17:26:31.361Z,66.28
2022-11-16T17:28:58.234Z,65.67
2022-11-16T17:31:26.158Z,65.35
2022-11-16T17:33:52.614Z,65.73
2022-11-16T17:36:19.732Z,66.31
2022-11-16T17:38:46.613Z,66.57
2022-11-16T17:41:16.201Z,65.94
2022-11-16T17:43:44.980Z,65.62
2022-11-16T17:46:14.724Z,66.50
2022-11-16T17:48:43.065Z,66.48
2022-11-16T17:51:11.683Z,66.34
2022-11-16T17:53:38.915Z,65.79
2022-11-16T17:56:07.129Z,65.30
2022-11-16T17:58:34.330Z,65.89
2022-11-16T18:01:01.019Z,65.53
2022-11-16T18:03:27.594Z,65.51
2022-11-16T18:06:13.520Z,65.68
2022-11-16T18:08:41.569Z,65.68
2022-11-16T18:11:16.986Z,66.20
2022-11-16T18:13:43.759Z,65.78
2022-11-16T18:16:19.003Z,66.89
2022-11-16T18:18:47.165Z,66.55
2022-11-16T18:21:20.449Z,66.23
2022-11-16T18:23:47.573Z,66.42
2022-11-16T18:26:19.983Z,66.32
2022-11-16T18:28:51.243Z,66.18
2022-11-16T18:31:20.934Z,65.96
2022-11-16T18:33:47.950Z,66.47
2022-11-16T18:36:15.066Z,66.30
2022-11-16T18:38:41.561Z,65.66
2022-11-16T18:41:10.951Z,66.51
2022-11-16T18:44:01.018Z,66.45
2022-11-16T18:46:30.289Z,66.31
2022-11-16T18:48:57.010Z,66.50
2022-11-16T18:51:25.622Z,66.90
2022-11-16T18:53:52.164Z,66.20
2022-11-16T18:56:19.476Z,66.82
2022-11-16T18:58:50.968Z,66.92
2022-11-16T19:01:23.842Z,67.47
2022-11-16T19:03:52.122Z,67.61
2022-11-16T19:06:19.893Z,67.71
2022-11-16T19:08:55.017Z,67.63
2022-11-16T19:11:23.199Z,67.53
2022-11-16T19:13:54.810Z,67.47
2022-11-16T19:16:22.068Z,67.45
2022-11-16T19:18:48.533Z,68.02
2022-11-16T19:21:16.761Z,68.61
2022-11-16T19:23:45.573Z,68.75
2022-11-16T19:26:14.200Z,68.53
2022-11-16T19:28:42.808Z,68.50
2022-11-16T19:31:13.678Z,69.17
2022-11-16T19:33:41.059Z,68.74
2022-11-16T19:36:18.158Z,68.92
2022-11-16T19:38:56.469Z,68.33
2022-11-16T19:41:24.597Z,68.46
2022-11-16T19:43:53.183Z,68.37
2022-11-16T19:46:19.797Z,68.56
2022-11-16T19:48:46.286Z,68.50
2022-11-16T19:51:15.923Z,68.07
2022-11-16T19:53:42.447Z,67.75
2022-11-16T19:56:11.999Z,67.62
2022-11-16T19:58:38.682Z,67.95
2022-11-16T20:01:08.187Z,67.12
2022-11-16T20:03:35.079Z,67.48
2022-11-16T20:06:29.657Z,67.11
2022-11-16T20:08:58.854Z,67.11
2022-11-16T20:11:27.763Z,67.82
2022-11-16T20:13:56.516Z,68.08
2022-11-16T20:16:31.676Z,68.62
2022-11-16T20:19:02.044Z,68.24
2022-11-16T20:21:31.008Z,68.98
2022-11-16T20:24:01.671Z,69.01
2022-11-16T20:26:34.645Z,68.59
2022-11-16T20:29:01.355Z,71.02
2022-11-16T20:31:30.578Z,72.89
2022-11-16T20:34:02.840Z,71.60
2022-11-16T20:36:31.465Z,70.10
2022-11-16T20:38:59.396Z,69.98
2022-11-16T20:41:28.493Z,70.10
2022-11-16T20:43:57.649Z,70.07
2022-11-16T20:46:27.079Z,69.14
2022-11-16T20:48:54.339Z,68.42
2022-11-16T20:51:21.036Z,69.56
2022-11-16T20:53:49.600Z,68.67
2022-11-16T20:56:18.112Z,67.68
2022-11-16T20:58:45.890Z,67.33
2022-11-16T21:01:15.754Z,67.31
2022-11-16T21:03:42.344Z,66.70
2022-11-16T21:06:08.832Z,67.96
2022-11-16T21:08:38.342Z,66.97
2022-11-16T21:11:12.610Z,65.72
2022-11-16T21:13:39.209Z,67.45
2022-11-16T21:16:09.111Z,65.07
2022-11-16T21:18:35.563Z,64.36
2022-11-16T21:21:05.439Z,64.30
2022-11-16T21:23:35.231Z,65.37
2022-11-16T21:26:03.718Z,66.40
2022-11-16T21:28:30.159Z,64.99
2022-11-16T21:31:03.559Z,64.70
2022-11-16T21:33:30.533Z,65.77
2022-11-16T21:35:56.985Z,66.24
2022-11-16T21:38:25.111Z,65.76
2022-11-16T21:40:51.882Z,65.58
2022-11-16T21:43:18.431Z,64.82
2022-11-16T21:45:47.370Z,65.23
2022-11-16T21:48:13.976Z,64.93
2022-11-16T21:50:41.919Z,65.15
2022-11-16T21:53:08.922Z,64.76
2022-11-16T21:55:36.066Z,64.20
2022-11-16T21:58:02.854Z,64.24
2022-11-16T22:00:29.872Z,64.19
2022-11-16T22:02:56.335Z,64.28
2022-11-16T22:05:22.837Z,63.42
2022-11-16T22:07:49.285Z,63.43
2022-11-16T22:10:15.908Z,63.47
2022-11-16T22:12:42.355Z,63.25
2022-11-16T22:15:09.112Z,64.63
2022-11-16T22:17:35.610Z,64.14
2022-11-16T22:20:02.082Z,63.65
2022-11-16T22:22:28.536Z,63.50
2022-11-16T22:24:55.001Z,62.44
2022-11-16T22:27:21.517Z,62.66
2022-11-16T22:29:47.940Z,62.21
2022-11-16T22:32:14.386Z,61.79
2022-11-16T22:34:40.878Z,61.86
2022-11-16T22:37:07.363Z,62.14
2022-11-16T22:39:33.886Z,63.70
2022-11-16T22:42:00.408Z,63.07
2022-11-16T22:44:26.836Z,63.59
2022-11-16T22:46:53.298Z,60.52
2022-11-16T22:49:19.777Z,60.53
2022-11-16T22:51:46.218Z,60.74
2022-11-16T22:54:13.049Z,62.10
2022-11-16T22:56:39.488Z,61.83
2022-11-16T22:59:06.074Z,61.03
2022-11-16T23:01:32.851Z,62.42
2022-11-16T23:03:59.433Z,62.02
2022-11-16T23:06:26.130Z,63.68
2022-11-16T23:08:52.598Z,63.00
2022-11-16T23:11:24.993Z,63.76
2022-11-16T23:13:53.202Z,65.01
2022-11-16T23:16:19.659Z,67.52
2022-11-16T23:18:46.128Z,66.63
2022-11-16T23:21:12.586Z,69.05
2022-11-16T23:23:39.051Z,70.03
2022-11-16T23:26:14.493Z,70.44
2022-11-16T23:28:40.966Z,70.56
2022-11-16T23:31:07.474Z,68.77
2022-11-16T23:33:34.289Z,69.99
2022-11-16T23:36:00.959Z,68.80
2022-11-16T23:38:27.404Z,67.70
2022-11-16T23:40:53.866Z,67.98
2022-11-16T23:43:20.418Z,67.91
2022-11-16T23:45:47.162Z,67.74
2022-11-16T23:48:16.306Z,70.23
2022-11-16T23:50:44.785Z,68.61
2022-11-16T23:53:12.226Z,68.70
2022-11-16T23:55:40.084Z,68.19
2022-11-16T23:58:12.408Z,68.49
